Other Surface Observations
Issued by NWS Missoula, MT

Home | Current Version | Previous Version | Text Only | Print | Product List | Glossary On
Versions: 1 2 3 4 5 6 7 8 9 10 11 12 13 14 15 16 17 18 19 20 21 22 23 24 25 26 27 28 29 30 31 32 33 34 35 36 37 38 39 40 41 42 43 44 45 46 47 48 49 50
000
SXUS55 KMSO 031143
OSOMSO
MONTANA AWOS SUMMARY
NATIONAL WEATHER SERVICE MISSOULA MT
543 AM MDT THU SEP 3 2015

Montana AWOS Reports

TWIN BRIDGES|K7S1 031135Z AUTO 00000KT 25SM 12/03 A2986 RMK AO1 T01220028
ROUNDUP     |KRPX 031135Z AUTO 00000KT 40SM 15/00 A2979 RMK AO1 T01500000




USA.gov is the U.S. government's official web portal to all federal, state and local government web resources and services.